Eagle Kuching — 9V8132 — position and weather

sailwx.info

Track history (hours):
 
Tides and Currents Weather Stations Pressure Air Temp Water Temp Dewpoint Dewpoint Depression Visibility Wind Speed Wind Dir Waves Ship Positions

Eagle Kuching

Last reported at 2017-Sep-22 01:04 UTC. Time now 2017-Sep-22 04:33 UTC.
Position N 38°33' W 074°22'.

Length 243 m; draft 9.1 m.

Type: Tanker. MMSI: 565108000.

Date/timePositionNaut miles runAvg speedWind from/ knotsBaromVisibWave heightAir tempDewpointWater temp
2017-Sep-22 01:04N 38°33' W 074°22'3 0.3
2017-Sep-21 15:16N 38°31' W 074°24'2 4.7
2017-Sep-21 14:56N 38°30' W 074°22'3 8.0
2017-Sep-21 14:30N 38°28' W 074°19'4 3.0
2017-Sep-21 13:14N 38°24' W 074°19'0 1.4
2017-Sep-21 12:57N 38°24' W 074°19'  
2017-Sep-19 06:41N 38°25' W 074°18'2 8.7
2017-Sep-19 06:28N 38°24' W 074°19'5 1.4
2017-Sep-19 02:53N 38°27' W 074°13'2 5.1
2017-Sep-19 02:29N 38°25' W 074°14'4 7.2
2017-Sep-19 01:58N 38°21' W 074°15'6 1.5
2017-Sep-18 21:48N 38°22' W 074°07'2 3.9
2017-Sep-18 21:24N 38°23' W 074°09'2 5.0
2017-Sep-18 21:00N 38°24' W 074°11'3 6.0
2017-Sep-18 20:30N 38°24' W 074°15'4 8.8
2017-Sep-18 20:00N 38°25' W 074°21'2 1.0
2017-Sep-18 17:47N 38°26' W 074°19'1 2.2
2017-Sep-18 17:29N 38°26' W 074°18'1 2.1
2017-Sep-18 16:58N 38°27' W 074°17'1 1.6
2017-Sep-18 16:20N 38°27' W 074°16'1 1.7
2017-Sep-18 15:58N 38°28' W 074°16'510.6
2017-Sep-18 15:29N 38°28' W 074°23'611.9
2017-Sep-18 15:00N 38°29' W 074°30'6 9.5
2017-Sep-18 14:22N 38°29' W 074°38'2 5.4
2017-Sep-18 14:00N 38°28' W 074°40'2610.3
2017-Sep-18 11:30N 38°46' W 075°02'510.0
2017-Sep-18 11:00N 38°51' W 075°05'510.1
2017-Sep-18 10:30N 38°56' W 075°06'611.8
2017-Sep-18 10:00N 39°01' W 075°09'611.9
2017-Sep-18 09:30N 39°07' W 075°13'612.5
2017-Sep-18 09:00N 39°12' W 075°17'713.9
2017-Sep-18 08:30N 39°17' W 075°22'815.4
2017-Sep-18 08:01N 39°23' W 075°29'714.5
2017-Sep-18 07:31N 39°29' W 075°34'612.6
2017-Sep-18 07:00N 39°36' W 075°34'612.0
2017-Sep-18 06:31N 39°41' W 075°31'612.8
2017-Sep-18 06:01N 39°47' W 075°28'3 6.8
2017-Sep-18 05:30N 39°49' W 075°24'0 0.3
2017-Sep-18 05:00N 39°49' W 075°24'0 0.2
2017-Sep-18 04:30N 39°49' W 075°24'0 0.0
2017-Sep-18 04:00N 39°49' W 075°23'0 0.0
2017-Sep-18 03:30N 39°49' W 075°23'0 0.0
2017-Sep-18 03:00N 39°49' W 075°23'0 0.0
2017-Sep-18 02:30N 39°49' W 075°23'0 0.0
2017-Sep-18 02:00N 39°49' W 075°23'0 0.0
2017-Sep-18 01:30N 39°49' W 075°23'0 0.0
2017-Sep-18 01:00N 39°49' W 075°23'0 0.0
2017-Sep-18 00:30N 39°49' W 075°23'0 0.0
2017-Sep-18 00:00N 39°49' W 075°23'0 0.1
2017-Sep-17 23:30N 39°49' W 075°24'0 0.4
2017-Sep-17 23:00N 39°49' W 075°24'0 0.2
2017-Sep-17 22:30N 39°49' W 075°24'0 0.1
2017-Sep-17 22:00N 39°49' W 075°24'0 0.1
2017-Sep-17 21:30N 39°49' W 075°24'0 0.0
2017-Sep-17 21:00N 39°49' W 075°24'0 0.0
2017-Sep-17 20:30N 39°49' W 075°24'0 0.0
2017-Sep-17 20:00N 39°49' W 075°24'0 0.0
2017-Sep-17 19:30N 39°49' W 075°24'0 0.0
2017-Sep-17 19:00N 39°49' W 075°24'0 0.0
2017-Sep-17 18:30N 39°49' W 075°24'0 0.0
2017-Sep-17 18:00N 39°49' W 075°24'0 0.0
2017-Sep-17 17:30N 39°49' W 075°24'0 0.1
2017-Sep-17 17:00N 39°49' W 075°24'0 0.5
2017-Sep-17 16:30N 39°49' W 075°23'0 0.1
2017-Sep-17 16:00N 39°49' W 075°23'0 0.3
2017-Sep-17 15:30N 39°49' W 075°23'3 5.1
2017-Sep-17 15:00N 39°51' W 075°21'4 7.2
2017-Sep-17 14:30N 39°51' W 075°16'0 0.4
2017-Sep-17 14:00N 39°51' W 075°16'0 0.0
2017-Sep-17 13:30N 39°51' W 075°16'0 0.0
2017-Sep-17 13:00N 39°51' W 075°16'0 0.0
2017-Sep-17 12:30N 39°51' W 075°16'0 0.0
2017-Sep-17 12:00N 39°51' W 075°16'0 0.0
2017-Sep-17 11:30N 39°51' W 075°16'0 0.0
2017-Sep-17 11:00N 39°51' W 075°16'0 0.0
2017-Sep-17 10:30N 39°51' W 075°16'0 0.0
2017-Sep-17 10:00N 39°51' W 075°16'0 0.0
2017-Sep-17 09:30N 39°51' W 075°16'0 0.0
2017-Sep-17 08:59N 39°51' W 075°16'0 0.0
2017-Sep-17 08:30N 39°51' W 075°16'0 0.0
2017-Sep-17 08:00N 39°51' W 075°16'0 0.0
2017-Sep-17 07:30N 39°51' W 075°16'0 0.0
2017-Sep-17 07:00N 39°51' W 075°16'0 0.0
2017-Sep-17 06:30N 39°51' W 075°16'0 0.0
2017-Sep-17 05:59N 39°51' W 075°16'0 0.0
2017-Sep-17 05:29N 39°51' W 075°16'0 0.0
2017-Sep-17 04:59N 39°51' W 075°16'0 0.0
2017-Sep-17 04:29N 39°51' W 075°16'0 0.0
2017-Sep-17 03:59N 39°51' W 075°16'0 0.0
2017-Sep-17 03:29N 39°51' W 075°16'0 0.0
2017-Sep-17 02:59N 39°51' W 075°16'0 0.0
2017-Sep-17 02:29N 39°51' W 075°16'0 0.0
2017-Sep-17 01:59N 39°51' W 075°16'0 0.0
2017-Sep-17 01:30N 39°51' W 075°16'0 0.0
2017-Sep-17 01:00N 39°51' W 075°16'0 0.0
2017-Sep-17 00:29N 39°51' W 075°16'0 0.0
2017-Sep-17 00:00N 39°51' W 075°16'0 0.0
2017-Sep-16 23:30N 39°51' W 075°16'0 0.0
2017-Sep-16 23:00N 39°51' W 075°16'0 0.0
2017-Sep-16 22:29N 39°51' W 075°16'0 0.0
2017-Sep-16 22:00N 39°51' W 075°16'0 0.0
2017-Sep-16 21:29N 39°51' W 075°16'0 0.0
2017-Sep-16 20:56N 39°51' W 075°16'0 0.0
2017-Sep-16 20:30N 39°51' W 075°16'0 0.0
2017-Sep-16 19:59N 39°51' W 075°16'0 0.0
2017-Sep-16 19:29N 39°51' W 075°16'0 0.0
2017-Sep-16 19:00N 39°51' W 075°16'0 0.0
2017-Sep-16 18:29N 39°51' W 075°16'0 0.0
2017-Sep-16 17:59N 39°51' W 075°16'0 0.0
2017-Sep-16 17:29N 39°51' W 075°16'0 0.0
2017-Sep-16 17:00N 39°51' W 075°16'0 0.0
2017-Sep-16 16:31N 39°51' W 075°16'0 0.2
2017-Sep-16 16:00N 39°51' W 075°16'2 3.3
2017-Sep-16 15:31N 39°51' W 075°18'4 7.4
2017-Sep-16 15:01N 39°49' W 075°23'5 9.5
2017-Sep-16 14:31N 39°47' W 075°28'611.5
2017-Sep-16 14:01N 39°41' W 075°31'511.0
2017-Sep-16 13:30N 39°37' W 075°34'611.1
2017-Sep-16 13:00N 39°31' W 075°33'611.4
2017-Sep-16 12:30N 39°26' W 075°32'713.1
2017-Sep-16 12:00N 39°21' W 075°26'713.1
2017-Sep-16 11:30N 39°16' W 075°20'612.6
2017-Sep-16 11:00N 39°11' W 075°16'612.4
2017-Sep-16 10:30N 39°05' W 075°11'612.4
2017-Sep-16 10:00N 38°60' W 075°08'612.8
2017-Sep-16 09:30N 38°54' W 075°05'612.4
2017-Sep-16 09:00N 38°48' W 075°02'4 7.4
2017-Sep-16 08:30N 38°46' W 074°59'4 7.5
2017-Sep-16 08:00N 38°43' W 074°55'4 7.7
2017-Sep-16 07:30N 38°40' W 074°52'4 7.5
2017-Sep-16 07:00N 38°37' W 074°49'4 8.8
2017-Sep-16 06:30N 38°34' W 074°46'510.8
2017-Sep-16 06:00N 38°30' W 074°40'1 2.1
2017-Sep-16 05:29N 38°30' W 074°39'0 0.1
2017-Sep-16 03:32N 38°30' W 074°39'0 0.2
2017-Sep-16 03:26N 38°30' W 074°39'0 0.2
2017-Sep-16 02:59N 38°30' W 074°39'0 0.0
2017-Sep-16 02:29N 38°30' W 074°39'0 0.0
2017-Sep-16 01:44N 38°30' W 074°39'0 0.1
2017-Sep-16 01:14N 38°30' W 074°39'0 0.1
2017-Sep-16 00:56N 38°30' W 074°39'0 0.1
2017-Sep-16 00:26N 38°30' W 074°39'0 0.0
2017-Sep-15 23:41N 38°30' W 074°39'  
Track history (hours):
 
Tides and Currents Weather Stations Pressure Air Temp Water Temp Dewpoint Dewpoint Depression Visibility Wind Speed Wind Dir Waves Ship Positions

Eagle Kuching

Last reported at 2017-Sep-22 01:04 UTC. Time now 2017-Sep-22 04:33 UTC.
Position N 38°33' W 074°22'.

Length 243 m; draft 9.1 m.

Type: Tanker. MMSI: 565108000.

Date/timePositionNaut miles runAvg speedWind from/ knotsBaromVisibWave heightAir tempDewpointWater temp
2017-Sep-22 01:04N 38°33' W 074°22'3 0.3
2017-Sep-21 15:16N 38°31' W 074°24'2 4.7
2017-Sep-21 14:56N 38°30' W 074°22'3 8.0
2017-Sep-21 14:30N 38°28' W 074°19'4 3.0
2017-Sep-21 13:14N 38°24' W 074°19'0 1.4
2017-Sep-21 12:57N 38°24' W 074°19'  
2017-Sep-19 06:41N 38°25' W 074°18'2 8.7
2017-Sep-19 06:28N 38°24' W 074°19'5 1.4
2017-Sep-19 02:53N 38°27' W 074°13'2 5.1
2017-Sep-19 02:29N 38°25' W 074°14'4 7.2
2017-Sep-19 01:58N 38°21' W 074°15'6 1.5
2017-Sep-18 21:48N 38°22' W 074°07'2 3.9
2017-Sep-18 21:24N 38°23' W 074°09'2 5.0
2017-Sep-18 21:00N 38°24' W 074°11'3 6.0
2017-Sep-18 20:30N 38°24' W 074°15'4 8.8
2017-Sep-18 20:00N 38°25' W 074°21'2 1.0
2017-Sep-18 17:47N 38°26' W 074°19'1 2.2
2017-Sep-18 17:29N 38°26' W 074°18'1 2.1
2017-Sep-18 16:58N 38°27' W 074°17'1 1.6
2017-Sep-18 16:20N 38°27' W 074°16'1 1.7
2017-Sep-18 15:58N 38°28' W 074°16'510.6
2017-Sep-18 15:29N 38°28' W 074°23'611.9
2017-Sep-18 15:00N 38°29' W 074°30'6 9.5
2017-Sep-18 14:22N 38°29' W 074°38'2 5.4
2017-Sep-18 14:00N 38°28' W 074°40'2610.3
2017-Sep-18 11:30N 38°46' W 075°02'510.0
2017-Sep-18 11:00N 38°51' W 075°05'510.1
2017-Sep-18 10:30N 38°56' W 075°06'611.8
2017-Sep-18 10:00N 39°01' W 075°09'611.9
2017-Sep-18 09:30N 39°07' W 075°13'612.5
2017-Sep-18 09:00N 39°12' W 075°17'713.9
2017-Sep-18 08:30N 39°17' W 075°22'815.4
2017-Sep-18 08:01N 39°23' W 075°29'714.5
2017-Sep-18 07:31N 39°29' W 075°34'612.6
2017-Sep-18 07:00N 39°36' W 075°34'612.0
2017-Sep-18 06:31N 39°41' W 075°31'612.8
2017-Sep-18 06:01N 39°47' W 075°28'3 6.8
2017-Sep-18 05:30N 39°49' W 075°24'0 0.3
2017-Sep-18 05:00N 39°49' W 075°24'0 0.2
2017-Sep-18 04:30N 39°49' W 075°24'0 0.0
2017-Sep-18 04:00N 39°49' W 075°23'0 0.0
2017-Sep-18 03:30N 39°49' W 075°23'0 0.0
2017-Sep-18 03:00N 39°49' W 075°23'0 0.0
2017-Sep-18 02:30N 39°49' W 075°23'0 0.0
2017-Sep-18 02:00N 39°49' W 075°23'0 0.0
2017-Sep-18 01:30N 39°49' W 075°23'0 0.0
2017-Sep-18 01:00N 39°49' W 075°23'0 0.0
2017-Sep-18 00:30N 39°49' W 075°23'0 0.0
2017-Sep-18 00:00N 39°49' W 075°23'0 0.1
2017-Sep-17 23:30N 39°49' W 075°24'0 0.4
2017-Sep-17 23:00N 39°49' W 075°24'0 0.2
2017-Sep-17 22:30N 39°49' W 075°24'0 0.1
2017-Sep-17 22:00N 39°49' W 075°24'0 0.1
2017-Sep-17 21:30N 39°49' W 075°24'0 0.0
2017-Sep-17 21:00N 39°49' W 075°24'0 0.0
2017-Sep-17 20:30N 39°49' W 075°24'0 0.0
2017-Sep-17 20:00N 39°49' W 075°24'0 0.0
2017-Sep-17 19:30N 39°49' W 075°24'0 0.0
2017-Sep-17 19:00N 39°49' W 075°24'0 0.0
2017-Sep-17 18:30N 39°49' W 075°24'0 0.0
2017-Sep-17 18:00N 39°49' W 075°24'0 0.0
2017-Sep-17 17:30N 39°49' W 075°24'0 0.1
2017-Sep-17 17:00N 39°49' W 075°24'0 0.5
2017-Sep-17 16:30N 39°49' W 075°23'0 0.1
2017-Sep-17 16:00N 39°49' W 075°23'0 0.3
2017-Sep-17 15:30N 39°49' W 075°23'3 5.1
2017-Sep-17 15:00N 39°51' W 075°21'4 7.2
2017-Sep-17 14:30N 39°51' W 075°16'0 0.4
2017-Sep-17 14:00N 39°51' W 075°16'0 0.0
2017-Sep-17 13:30N 39°51' W 075°16'0 0.0
2017-Sep-17 13:00N 39°51' W 075°16'0 0.0
2017-Sep-17 12:30N 39°51' W 075°16'0 0.0
2017-Sep-17 12:00N 39°51' W 075°16'0 0.0
2017-Sep-17 11:30N 39°51' W 075°16'0 0.0
2017-Sep-17 11:00N 39°51' W 075°16'0 0.0
2017-Sep-17 10:30N 39°51' W 075°16'0 0.0
2017-Sep-17 10:00N 39°51' W 075°16'0 0.0
2017-Sep-17 09:30N 39°51' W 075°16'0 0.0
2017-Sep-17 08:59N 39°51' W 075°16'0 0.0
2017-Sep-17 08:30N 39°51' W 075°16'0 0.0
2017-Sep-17 08:00N 39°51' W 075°16'0 0.0
2017-Sep-17 07:30N 39°51' W 075°16'0 0.0
2017-Sep-17 07:00N 39°51' W 075°16'0 0.0
2017-Sep-17 06:30N 39°51' W 075°16'0 0.0
2017-Sep-17 05:59N 39°51' W 075°16'0 0.0
2017-Sep-17 05:29N 39°51' W 075°16'0 0.0
2017-Sep-17 04:59N 39°51' W 075°16'0 0.0
2017-Sep-17 04:29N 39°51' W 075°16'0 0.0
2017-Sep-17 03:59N 39°51' W 075°16'0 0.0
2017-Sep-17 03:29N 39°51' W 075°16'0 0.0
2017-Sep-17 02:59N 39°51' W 075°16'0 0.0
2017-Sep-17 02:29N 39°51' W 075°16'0 0.0
2017-Sep-17 01:59N 39°51' W 075°16'0 0.0
2017-Sep-17 01:30N 39°51' W 075°16'0 0.0
2017-Sep-17 01:00N 39°51' W 075°16'0 0.0
2017-Sep-17 00:29N 39°51' W 075°16'0 0.0
2017-Sep-17 00:00N 39°51' W 075°16'0 0.0
2017-Sep-16 23:30N 39°51' W 075°16'0 0.0
2017-Sep-16 23:00N 39°51' W 075°16'0 0.0
2017-Sep-16 22:29N 39°51' W 075°16'0 0.0
2017-Sep-16 22:00N 39°51' W 075°16'0 0.0
2017-Sep-16 21:29N 39°51' W 075°16'0 0.0
2017-Sep-16 20:56N 39°51' W 075°16'0 0.0
2017-Sep-16 20:30N 39°51' W 075°16'0 0.0
2017-Sep-16 19:59N 39°51' W 075°16'0 0.0
2017-Sep-16 19:29N 39°51' W 075°16'0 0.0
2017-Sep-16 19:00N 39°51' W 075°16'0 0.0
2017-Sep-16 18:29N 39°51' W 075°16'0 0.0
2017-Sep-16 17:59N 39°51' W 075°16'0 0.0
2017-Sep-16 17:29N 39°51' W 075°16'0 0.0
2017-Sep-16 17:00N 39°51' W 075°16'0 0.0
2017-Sep-16 16:31N 39°51' W 075°16'0 0.2
2017-Sep-16 16:00N 39°51' W 075°16'2 3.3
2017-Sep-16 15:31N 39°51' W 075°18'4 7.4
2017-Sep-16 15:01N 39°49' W 075°23'5 9.5
2017-Sep-16 14:31N 39°47' W 075°28'611.5
2017-Sep-16 14:01N 39°41' W 075°31'511.0
2017-Sep-16 13:30N 39°37' W 075°34'611.1
2017-Sep-16 13:00N 39°31' W 075°33'611.4
2017-Sep-16 12:30N 39°26' W 075°32'713.1
2017-Sep-16 12:00N 39°21' W 075°26'713.1
2017-Sep-16 11:30N 39°16' W 075°20'612.6
2017-Sep-16 11:00N 39°11' W 075°16'612.4
2017-Sep-16 10:30N 39°05' W 075°11'612.4
2017-Sep-16 10:00N 38°60' W 075°08'612.8
2017-Sep-16 09:30N 38°54' W 075°05'612.4
2017-Sep-16 09:00N 38°48' W 075°02'4 7.4
2017-Sep-16 08:30N 38°46' W 074°59'4 7.5
2017-Sep-16 08:00N 38°43' W 074°55'4 7.7
2017-Sep-16 07:30N 38°40' W 074°52'4 7.5
2017-Sep-16 07:00N 38°37' W 074°49'4 8.8
2017-Sep-16 06:30N 38°34' W 074°46'510.8
2017-Sep-16 06:00N 38°30' W 074°40'1 2.1
2017-Sep-16 05:29N 38°30' W 074°39'0 0.1
2017-Sep-16 03:32N 38°30' W 074°39'0 0.2
2017-Sep-16 03:26N 38°30' W 074°39'0 0.2
2017-Sep-16 02:59N 38°30' W 074°39'0 0.0
2017-Sep-16 02:29N 38°30' W 074°39'0 0.0
2017-Sep-16 01:44N 38°30' W 074°39'0 0.1
2017-Sep-16 01:14N 38°30' W 074°39'0 0.1
2017-Sep-16 00:56N 38°30' W 074°39'0 0.1
2017-Sep-16 00:26N 38°30' W 074°39'0 0.0
2017-Sep-15 23:41N 38°30' W 074°39'  

Dump ship's entire track history